createdAt,value
2022-10-23T00:01:46.211Z,89.85
2022-10-23T00:04:17.036Z,89.94
2022-10-23T00:06:45.933Z,89.92
2022-10-23T00:09:17.738Z,89.68
2022-10-23T00:11:50.453Z,89.54
2022-10-23T00:14:21.703Z,89.65
2022-10-23T00:16:50.152Z,89.69
2022-10-23T00:19:18.515Z,89.59
2022-10-23T00:21:46.528Z,89.81
2022-10-23T00:24:14.663Z,89.68
2022-10-23T00:26:42.981Z,89.68
2022-10-23T00:29:11.929Z,89.63
2022-10-23T00:31:39.941Z,89.58
2022-10-23T00:34:08.828Z,89.64
2022-10-23T00:36:37.925Z,89.60
2022-10-23T00:39:06.670Z,89.64
2022-10-23T00:41:35.187Z,89.57
2022-10-23T00:44:30.394Z,89.56
2022-10-23T00:46:59.464Z,89.65
2022-10-23T00:49:28.557Z,89.71
2022-10-23T00:52:01.343Z,89.73
2022-10-23T00:54:34.452Z,89.72
2022-10-23T00:57:05.594Z,89.84
2022-10-23T00:59:34.470Z,89.67
2022-10-23T01:02:02.602Z,89.67
2022-10-23T01:04:31.084Z,89.70
2022-10-23T01:07:29.830Z,89.68
2022-10-23T01:10:10.508Z,89.68
2022-10-23T01:12:50.616Z,89.72
2022-10-23T01:15:29.033Z,89.73
2022-10-23T01:18:24.492Z,89.93
2022-10-23T01:21:04.872Z,89.98
2022-10-23T01:23:43.753Z,90.22
2022-10-23T01:26:38.207Z,90.40
2022-10-23T01:29:30.992Z,90.43
2022-10-23T01:32:11.762Z,90.56
2022-10-23T01:34:51.834Z,90.69
2022-10-23T01:37:29.736Z,90.71
2022-10-23T01:40:05.959Z,90.77
2022-10-23T01:42:41.361Z,90.75
2022-10-23T01:45:31.203Z,90.77
2022-10-23T01:48:02.440Z,90.90
2022-10-23T01:50:32.411Z,90.81
2022-10-23T01:53:05.178Z,90.85
2022-10-23T01:55:34.247Z,90.64
2022-10-23T01:58:09.230Z,90.65
2022-10-23T02:00:43.274Z,90.66
2022-10-23T02:03:13.595Z,90.70
2022-10-23T02:05:43.822Z,90.71
2022-10-23T02:08:12.464Z,90.80
2022-10-23T02:10:43.952Z,90.75
2022-10-23T02:13:38.645Z,90.90
2022-10-23T02:16:28.833Z,90.92
2022-10-23T02:18:56.698Z,91.10
2022-10-23T02:21:34.397Z,90.94
2022-10-23T02:24:11.428Z,91.13
2022-10-23T02:26:47.331Z,90.96
2022-10-23T02:29:23.277Z,90.96
2022-10-23T02:31:51.294Z,90.92
2022-10-23T02:34:20.043Z,90.94
2022-10-23T02:36:48.011Z,90.54
2022-10-23T02:39:16.084Z,90.34
2022-10-23T02:41:51.524Z,90.29
2022-10-23T02:44:26.538Z,90.30
2022-10-23T02:47:09.535Z,90.19
2022-10-23T02:50:00.585Z,90.36
2022-10-23T02:52:59.133Z,90.52
2022-10-23T02:55:45.981Z,90.58
2022-10-23T02:58:29.924Z,90.62
2022-10-23T03:01:16.016Z,90.50
2022-10-23T03:04:11.784Z,90.67
2022-10-23T03:06:42.438Z,90.74
2022-10-23T03:09:16.685Z,90.78
2022-10-23T03:11:44.653Z,90.73
2022-10-23T03:14:14.145Z,90.58
2022-10-23T03:16:42.235Z,90.37
2022-10-23T03:21:44.925Z,90.23
2022-10-23T03:24:12.887Z,90.11
2022-10-23T03:26:43.536Z,90.01
2022-10-23T03:29:11.693Z,89.97
2022-10-23T03:31:45.214Z,89.97
2022-10-23T03:34:15.209Z,90.08
2022-10-23T03:36:43.501Z,90.14
2022-10-23T03:39:11.761Z,90.15
2022-10-23T03:41:39.929Z,90.13
2022-10-23T03:44:08.741Z,90.01
2022-10-23T03:46:36.687Z,90.18
2022-10-23T03:49:05.986Z,90.21
2022-10-23T03:51:35.079Z,90.14
2022-10-23T03:54:03.049Z,90.15
2022-10-23T03:56:31.115Z,90.03
2022-10-23T03:59:00.747Z,90.13
2022-10-23T04:01:29.327Z,90.10
2022-10-23T04:03:57.599Z,90.08
2022-10-23T04:06:25.754Z,89.98
2022-10-23T04:08:57.106Z,89.97
2022-10-23T04:11:25.069Z,90.05
2022-10-23T04:13:53.037Z,89.98
2022-10-23T04:16:21.106Z,89.78
2022-10-23T04:18:49.104Z,89.58
2022-10-23T04:21:17.687Z,89.19
2022-10-23T04:23:45.696Z,89.18
2022-10-23T04:26:16.154Z,89.01
2022-10-23T04:28:44.067Z,88.89
2022-10-23T04:31:12.192Z,88.78
2022-10-23T04:33:42.413Z,88.94
2022-10-23T04:36:10.487Z,88.81
2022-10-23T04:38:40.402Z,88.82
2022-10-23T04:41:08.756Z,88.90
2022-10-23T04:43:37.358Z,88.94
2022-10-23T04:46:05.633Z,88.73
2022-10-23T04:48:35.243Z,88.86
2022-10-23T04:51:18.468Z,89.05
2022-10-23T04:54:09.986Z,89.24
2022-10-23T04:56:47.071Z,89.52
2022-10-23T04:59:18.345Z,89.78
2022-10-23T05:01:46.763Z,89.89
2022-10-23T05:04:15.372Z,89.92
2022-10-23T05:07:02.201Z,90.27
2022-10-23T05:09:56.365Z,90.53
2022-10-23T05:12:30.173Z,90.67
2022-10-23T05:14:58.857Z,90.64
2022-10-23T05:17:37.785Z,90.64
2022-10-23T05:20:12.801Z,90.78
2022-10-23T05:22:42.835Z,90.71
2022-10-23T05:25:13.247Z,90.90
2022-10-23T05:27:45.589Z,90.72
2022-10-23T05:30:15.233Z,90.72
2022-10-23T05:32:43.872Z,90.59
2022-10-23T05:35:17.606Z,90.59
2022-10-23T05:37:51.119Z,90.63
2022-10-23T05:40:22.629Z,90.67
2022-10-23T05:42:54.014Z,90.72
2022-10-23T05:45:39.115Z,90.71
2022-10-23T05:48:33.900Z,90.70
2022-10-23T05:51:23.464Z,90.86
2022-10-23T05:53:59.721Z,90.90
2022-10-23T05:56:37.174Z,90.80
2022-10-23T05:59:22.964Z,90.73
2022-10-23T06:02:10.190Z,90.59
2022-10-23T06:04:53.857Z,90.47
2022-10-23T06:07:43.028Z,90.40
2022-10-23T06:10:11.294Z,90.26
2022-10-23T06:12:42.334Z,90.16
2022-10-23T06:15:11.735Z,89.93
2022-10-23T06:18:01.475Z,89.82
2022-10-23T06:20:29.932Z,89.76
2022-10-23T06:23:07.236Z,89.69
2022-10-23T06:25:54.806Z,89.55
2022-10-23T06:28:27.182Z,89.50
2022-10-23T06:30:55.252Z,89.52
2022-10-23T06:33:23.323Z,89.66
2022-10-23T06:35:51.391Z,89.87
2022-10-23T06:38:19.359Z,89.80
2022-10-23T06:40:56.935Z,89.97
2022-10-23T06:43:34.853Z,90.09
2022-10-23T06:46:18.986Z,90.13
2022-10-23T06:49:07.248Z,90.27
2022-10-23T06:51:45.451Z,90.54
2022-10-23T06:54:14.650Z,90.85
2022-10-23T06:56:51.630Z,90.84
2022-10-23T06:59:23.387Z,90.68
2022-10-23T07:04:26.180Z,90.45
2022-10-23T07:06:58.352Z,90.46
2022-10-23T07:09:31.000Z,90.28
2022-10-23T07:11:58.996Z,90.15
2022-10-23T07:14:34.441Z,90.29
2022-10-23T07:17:03.227Z,90.12
2022-10-23T07:19:31.194Z,90.25
2022-10-23T07:22:02.643Z,90.02
2022-10-23T07:24:37.272Z,90.02
2022-10-23T07:27:08.948Z,89.99
2022-10-23T07:29:37.304Z,90.11
2022-10-23T07:32:06.083Z,90.09
2022-10-23T07:34:52.665Z,90.04
2022-10-23T07:37:26.817Z,90.20
2022-10-23T07:39:54.872Z,90.23
2022-10-23T07:42:24.329Z,90.51
2022-10-23T07:44:52.448Z,90.58
2022-10-23T07:47:20.420Z,90.62
2022-10-23T07:49:50.610Z,90.41
2022-10-23T07:52:20.451Z,90.46
2022-10-23T07:55:11.460Z,90.43
2022-10-23T07:57:44.900Z,90.43
2022-10-23T08:00:41.904Z,90.44
2022-10-23T08:03:14.279Z,90.36
2022-10-23T08:05:42.341Z,90.19
2022-10-23T08:08:10.411Z,90.23
2022-10-23T08:10:41.781Z,90.17
2022-10-23T08:13:15.054Z,90.28
2022-10-23T08:16:08.960Z,90.27
2022-10-23T08:18:55.737Z,90.39
2022-10-23T08:21:24.835Z,90.36
2022-10-23T08:23:57.821Z,90.45
2022-10-23T08:26:29.681Z,90.64
2022-10-23T08:29:01.297Z,90.55
2022-10-23T08:31:29.615Z,90.51
2022-10-23T08:34:16.729Z,90.25
2022-10-23T08:36:46.843Z,90.22
2022-10-23T08:39:15.021Z,90.25
2022-10-23T08:41:53.340Z,90.10
2022-10-23T08:44:40.860Z,90.01
2022-10-23T08:47:14.934Z,90.04
2022-10-23T08:50:30.985Z,90.04
2022-10-23T08:53:11.836Z,90.03
2022-10-23T08:55:45.459Z,90.14
2022-10-23T08:58:29.540Z,90.03
2022-10-23T09:00:58.324Z,90.16
2022-10-23T09:03:27.765Z,89.93
2022-10-23T09:06:20.618Z,89.93
2022-10-23T09:08:51.560Z,90.04
2022-10-23T09:11:33.146Z,90.30
2022-10-23T09:14:32.338Z,90.26
2022-10-23T09:17:25.000Z,90.27
2022-10-23T09:20:12.993Z,90.54
2022-10-23T09:22:42.389Z,90.66
2022-10-23T09:25:12.427Z,90.79
2022-10-23T09:27:49.638Z,90.67
2022-10-23T09:30:38.385Z,90.66
2022-10-23T09:33:18.353Z,90.63
2022-10-23T09:35:55.618Z,90.46
2022-10-23T09:38:37.108Z,90.68
2022-10-23T09:41:16.132Z,90.59
2022-10-23T09:43:44.203Z,90.64
2022-10-23T09:46:14.375Z,90.74
2022-10-23T09:48:42.635Z,90.68
2022-10-23T09:51:21.029Z,90.67
2022-10-23T09:53:55.284Z,90.57
2022-10-23T09:56:40.831Z,90.59
2022-10-23T09:59:11.954Z,90.61
2022-10-23T10:01:52.389Z,90.92
2022-10-23T10:04:41.857Z,91.01
2022-10-23T10:07:22.294Z,91.00
2022-10-23T10:09:51.037Z,91.31
2022-10-23T10:12:44.156Z,91.24
2022-10-23T10:15:20.958Z,91.41
2022-10-23T10:18:01.112Z,91.55
2022-10-23T10:20:38.295Z,91.63
2022-10-23T10:23:25.992Z,91.75
2022-10-23T10:25:59.834Z,91.72
2022-10-23T10:28:53.698Z,91.82
2022-10-23T10:31:27.205Z,91.75
2022-10-23T10:34:07.357Z,91.53
2022-10-23T10:36:55.607Z,91.25
2022-10-23T10:39:55.623Z,91.38
2022-10-23T10:42:48.709Z,91.48
2022-10-23T10:45:38.211Z,91.28
2022-10-23T10:48:21.896Z,91.10
2022-10-23T10:51:11.462Z,91.18
2022-10-23T10:54:32.579Z,91.23
2022-10-23T10:57:05.521Z,91.18
2022-10-23T10:59:39.062Z,91.13
2022-10-23T11:02:22.230Z,91.17
2022-10-23T11:05:16.264Z,91.07
2022-10-23T11:08:00.910Z,91.05
2022-10-23T11:10:30.617Z,91.15
2022-10-23T11:12:58.804Z,91.13
2022-10-23T11:15:35.988Z,91.12
2022-10-23T11:18:12.240Z,90.84
2022-10-23T11:20:54.135Z,90.87
2022-10-23T11:23:28.052Z,90.96
2022-10-23T11:26:17.480Z,91.01
2022-10-23T11:28:52.507Z,91.25
2022-10-23T11:31:41.661Z,91.44
2022-10-23T11:34:37.589Z,91.35
2022-10-23T11:37:06.960Z,90.90
2022-10-23T11:39:37.984Z,90.78
2022-10-23T11:42:15.849Z,90.76
2022-10-23T11:44:48.968Z,90.85
2022-10-23T11:47:27.399Z,91.09
2022-10-23T11:50:07.626Z,91.21
2022-10-23T11:52:50.342Z,91.09
2022-10-23T11:55:27.547Z,91.18
2022-10-23T11:58:04.591Z,91.46
2022-10-23T12:00:35.693Z,91.65
2022-10-23T12:03:04.070Z,91.83
2022-10-23T12:05:38.050Z,91.47
2022-10-23T12:08:19.847Z,91.41
2022-10-23T12:10:52.999Z,91.24
2022-10-23T12:13:50.430Z,90.95
2022-10-23T12:16:18.460Z,90.81
2022-10-23T12:18:56.979Z,90.65
2022-10-23T12:21:28.996Z,90.95
2022-10-23T12:24:02.644Z,91.15
2022-10-23T12:26:52.663Z,91.03
2022-10-23T12:29:42.607Z,90.94
2022-10-23T12:32:43.918Z,90.62
2022-10-23T12:35:21.241Z,89.26
2022-10-23T12:38:01.501Z,88.17
2022-10-23T12:40:30.452Z,87.23
2022-10-23T12:43:01.840Z,86.39
2022-10-23T12:45:39.843Z,86.10
2022-10-23T12:48:19.698Z,86.17
2022-10-23T12:50:53.642Z,86.60
2022-10-23T12:53:23.541Z,86.94
2022-10-23T12:58:35.226Z,86.19
2022-10-23T13:01:22.242Z,86.27
2022-10-23T13:03:51.223Z,86.96
2022-10-23T13:06:19.738Z,86.96
2022-10-23T13:08:49.006Z,87.17
2022-10-23T13:11:35.507Z,87.33
2022-10-23T13:14:14.337Z,87.43
2022-10-23T13:16:42.608Z,87.39
2022-10-23T13:19:26.205Z,87.07
2022-10-23T13:21:54.513Z,86.71
2022-10-23T13:24:25.864Z,86.28
2022-10-23T13:26:55.248Z,86.12
2022-10-23T13:29:34.777Z,86.28
2022-10-23T13:32:12.886Z,86.81
2022-10-23T13:35:03.559Z,86.77
2022-10-23T13:37:38.770Z,86.99
2022-10-23T13:40:19.908Z,87.13
2022-10-23T13:42:52.602Z,86.90
2022-10-23T13:45:24.404Z,86.55
2022-10-23T13:47:53.220Z,86.56
2022-10-23T13:50:21.213Z,86.26
2022-10-23T13:52:50.616Z,86.36
2022-10-23T13:55:26.780Z,86.32
2022-10-23T13:57:54.745Z,86.08
2022-10-23T14:00:22.715Z,86.05
2022-10-23T14:02:50.753Z,85.77
2022-10-23T14:05:18.858Z,84.24
2022-10-23T14:07:46.967Z,84.37
2022-10-23T14:10:15.243Z,83.48
2022-10-23T14:12:44.808Z,83.80
2022-10-23T14:15:13.399Z,83.75
2022-10-23T14:17:41.255Z,83.75
2022-10-23T14:20:10.015Z,83.54
2022-10-23T14:22:38.215Z,83.36
2022-10-23T14:25:06.682Z,83.57
2022-10-23T14:27:34.754Z,83.71
2022-10-23T14:30:02.730Z,83.52
2022-10-23T14:32:31.197Z,83.19
2022-10-23T14:35:03.905Z,81.65
2022-10-23T14:37:32.628Z,80.64
2022-10-23T14:40:01.039Z,80.79
2022-10-23T14:42:34.265Z,80.78
2022-10-23T14:45:02.862Z,81.05
2022-10-23T14:47:31.957Z,81.02
2022-10-23T14:49:59.893Z,81.10
2022-10-23T14:52:28.272Z,80.96
2022-10-23T14:54:56.211Z,81.20
2022-10-23T14:57:24.211Z,81.50
2022-10-23T14:59:52.173Z,81.69
2022-10-23T15:02:20.254Z,81.82
2022-10-23T15:04:48.210Z,82.12
2022-10-23T15:07:16.383Z,81.98
2022-10-23T15:09:44.305Z,81.81
2022-10-23T15:12:12.418Z,81.78
2022-10-23T15:14:40.411Z,81.75
2022-10-23T15:17:11.726Z,81.38
2022-10-23T15:19:42.478Z,81.22
2022-10-23T15:22:10.545Z,81.44
2022-10-23T15:24:38.470Z,81.77
2022-10-23T15:27:06.868Z,82.08
2022-10-23T15:29:34.857Z,82.19
2022-10-23T15:32:05.491Z,82.26
2022-10-23T15:34:33.933Z,82.57
2022-10-23T15:37:02.285Z,82.77
2022-10-23T15:39:33.977Z,82.60
2022-10-23T15:42:04.529Z,82.52
2022-10-23T15:44:33.838Z,82.77
2022-10-23T15:47:01.920Z,82.64
2022-10-23T15:49:30.172Z,82.66
2022-10-23T15:55:04.610Z,83.30
2022-10-23T15:57:32.591Z,83.45
2022-10-23T16:00:00.676Z,83.69
2022-10-23T16:02:28.863Z,83.75
2022-10-23T16:04:56.998Z,83.46
2022-10-23T16:07:25.174Z,83.45
2022-10-23T16:09:53.544Z,83.57
2022-10-23T16:12:21.618Z,83.55
2022-10-23T16:14:49.692Z,83.35
2022-10-23T16:17:19.649Z,83.32
2022-10-23T16:19:47.773Z,83.40
2022-10-23T16:22:16.459Z,83.52
2022-10-23T16:24:44.527Z,83.75
2022-10-23T16:27:13.524Z,83.87
2022-10-23T16:29:41.597Z,83.89
2022-10-23T16:32:09.531Z,83.95
2022-10-23T16:34:37.426Z,84.01
2022-10-23T16:37:05.330Z,83.89
2022-10-23T16:39:47.234Z,84.08
2022-10-23T16:42:34.216Z,84.37
2022-10-23T16:45:37.935Z,84.73
2022-10-23T16:48:06.105Z,84.84
2022-10-23T16:50:34.192Z,84.71
2022-10-23T16:53:02.322Z,84.88
2022-10-23T16:55:30.608Z,85.01
2022-10-23T16:58:00.717Z,85.08
2022-10-23T17:00:35.228Z,85.06
2022-10-23T17:03:04.845Z,85.17
2022-10-23T17:05:34.655Z,85.14
2022-10-23T17:08:02.626Z,85.32
2022-10-23T17:10:30.696Z,85.40
2022-10-23T17:12:58.663Z,85.51
2022-10-23T17:15:26.628Z,85.86
2022-10-23T17:17:54.607Z,86.06
2022-10-23T17:20:22.668Z,86.35
2022-10-23T17:22:50.846Z,86.57
2022-10-23T17:25:18.809Z,87.17
2022-10-23T17:27:46.974Z,87.37
2022-10-23T17:30:14.966Z,87.46
2022-10-23T17:32:43.156Z,87.48
2022-10-23T17:35:11.507Z,87.22
2022-10-23T17:37:39.571Z,87.37
2022-10-23T17:40:08.506Z,87.36
2022-10-23T17:42:36.701Z,87.42
2022-10-23T17:45:05.749Z,87.36
2022-10-23T17:47:34.011Z,87.45
2022-10-23T17:50:01.981Z,87.45
2022-10-23T17:52:31.070Z,87.50
2022-10-23T17:54:59.034Z,87.57
2022-10-23T17:57:27.004Z,87.45
2022-10-23T17:59:54.977Z,87.47
2022-10-23T18:02:23.082Z,87.49
2022-10-23T18:04:51.211Z,87.22
2022-10-23T18:07:19.290Z,87.12
2022-10-23T18:09:47.249Z,87.28
2022-10-23T18:12:15.248Z,87.32
2022-10-23T18:14:43.191Z,87.34
2022-10-23T18:17:11.157Z,87.55
2022-10-23T18:19:39.125Z,87.73
2022-10-23T18:22:07.179Z,87.66
2022-10-23T18:24:36.187Z,87.66
2022-10-23T18:27:04.153Z,87.77
2022-10-23T18:29:32.430Z,87.65
2022-10-23T18:32:00.395Z,87.69
2022-10-23T18:34:28.471Z,87.62
2022-10-23T18:36:56.846Z,87.36
2022-10-23T18:39:25.732Z,87.25
2022-10-23T18:41:56.701Z,87.12
2022-10-23T18:44:29.175Z,87.21
2022-10-23T18:46:59.328Z,87.35
2022-10-23T18:49:28.139Z,87.55
2022-10-23T18:51:56.429Z,87.35
2022-10-23T18:54:24.730Z,87.20
2022-10-23T18:56:52.673Z,87.17
2022-10-23T18:59:21.603Z,87.26
2022-10-23T19:01:50.352Z,87.28
2022-10-23T19:04:19.457Z,87.13
2022-10-23T19:06:50.177Z,87.35
2022-10-23T19:09:18.232Z,87.28
2022-10-23T19:11:46.468Z,87.25
2022-10-23T19:14:14.518Z,87.35
2022-10-23T19:17:05.295Z,87.41
2022-10-23T19:19:44.013Z,87.35
2022-10-23T19:22:14.075Z,87.40
2022-10-23T19:24:47.301Z,87.34
2022-10-23T19:27:15.621Z,87.19
2022-10-23T19:29:46.842Z,87.05
2022-10-23T19:32:15.530Z,86.88
2022-10-23T19:34:44.216Z,86.98
2022-10-23T19:39:45.064Z,86.77
2022-10-23T19:42:13.383Z,86.58
2022-10-23T19:44:41.319Z,86.95
2022-10-23T19:47:09.275Z,86.89
2022-10-23T19:49:37.449Z,86.74
2022-10-23T19:52:05.523Z,86.70
2022-10-23T19:54:33.794Z,86.93
2022-10-23T19:57:02.683Z,87.01
2022-10-23T19:59:30.725Z,87.19
2022-10-23T20:01:58.908Z,87.30
2022-10-23T20:04:29.050Z,87.21
2022-10-23T20:06:57.466Z,87.03
2022-10-23T20:09:25.566Z,87.18
2022-10-23T20:11:53.872Z,87.07
2022-10-23T20:14:21.840Z,87.42
2022-10-23T20:16:53.535Z,87.39
2022-10-23T20:19:24.027Z,87.40
2022-10-23T20:21:52.068Z,87.18
2022-10-23T20:24:21.489Z,86.64
2022-10-23T20:26:52.745Z,86.95
2022-10-23T20:29:21.749Z,87.22
2022-10-23T20:31:49.804Z,87.22
2022-10-23T20:34:19.270Z,87.32
2022-10-23T20:36:49.630Z,86.81
2022-10-23T20:39:26.832Z,86.91
2022-10-23T20:41:56.085Z,86.86
2022-10-23T20:44:24.855Z,86.24
2022-10-23T20:46:53.449Z,86.39
2022-10-23T20:49:22.552Z,86.73
2022-10-23T20:51:55.722Z,86.86
2022-10-23T20:54:26.141Z,87.39
2022-10-23T20:56:54.979Z,87.06
2022-10-23T20:59:23.154Z,86.93
2022-10-23T21:01:53.314Z,87.31
2022-10-23T21:04:25.302Z,87.12
2022-10-23T21:07:09.387Z,87.57
2022-10-23T21:09:38.329Z,87.98
2022-10-23T21:12:06.980Z,87.77
2022-10-23T21:14:36.129Z,88.06
2022-10-23T21:17:04.529Z,88.34
2022-10-23T21:19:32.644Z,88.72
2022-10-23T21:22:01.386Z,88.91
2022-10-23T21:24:29.376Z,88.98
2022-10-23T21:26:57.325Z,89.21
2022-10-23T21:29:25.212Z,89.41
2022-10-23T21:31:59.566Z,89.43
2022-10-23T21:34:28.704Z,89.47
2022-10-23T21:37:13.783Z,89.51
2022-10-23T21:39:44.145Z,89.72
2022-10-23T21:42:14.109Z,89.46
2022-10-23T21:44:42.183Z,89.56
2022-10-23T21:47:10.563Z,89.60
2022-10-23T21:49:38.733Z,89.53
2022-10-23T21:52:06.905Z,89.53
2022-10-23T21:54:34.978Z,89.28
2022-10-23T21:57:03.628Z,89.28
2022-10-23T21:59:35.589Z,89.29
2022-10-23T22:02:04.428Z,89.58
2022-10-23T22:04:32.858Z,89.82
2022-10-23T22:07:02.919Z,89.94
2022-10-23T22:09:32.633Z,90.02
2022-10-23T22:12:01.394Z,89.87
2022-10-23T22:14:31.828Z,89.95
2022-10-23T22:16:59.796Z,89.80
2022-10-23T22:19:28.260Z,89.81
2022-10-23T22:21:56.245Z,89.81
2022-10-23T22:24:24.228Z,89.84
2022-10-23T22:26:55.559Z,89.91
2022-10-23T22:29:26.855Z,90.11
2022-10-23T22:31:55.387Z,90.06
2022-10-23T22:34:47.966Z,90.05
2022-10-23T22:37:13.776Z,90.00
2022-10-23T22:39:41.940Z,89.90
2022-10-23T22:42:09.994Z,90.05
2022-10-23T22:44:37.963Z,89.85
2022-10-23T22:47:06.718Z,89.74
2022-10-23T22:49:34.721Z,89.79
2022-10-23T22:52:02.687Z,89.73
2022-10-23T22:54:31.686Z,89.65
2022-10-23T22:56:59.868Z,89.75
2022-10-23T22:59:27.920Z,89.77
2022-10-23T23:01:55.990Z,89.79
2022-10-23T23:04:39.562Z,89.75
2022-10-23T23:07:11.281Z,89.79
2022-10-23T23:09:43.982Z,89.76
2022-10-23T23:12:13.893Z,90.00
2022-10-23T23:14:42.765Z,90.21
2022-10-23T23:17:11.349Z,90.31
2022-10-23T23:19:39.826Z,90.27
2022-10-23T23:22:07.937Z,90.35
2022-10-23T23:24:36.067Z,90.16
2022-10-23T23:27:04.150Z,90.14
2022-10-23T23:29:32.517Z,90.14
2022-10-23T23:32:00.567Z,90.27
2022-10-23T23:34:28.858Z,90.19
2022-10-23T23:36:56.827Z,90.09
2022-10-23T23:39:26.339Z,90.20
2022-10-23T23:41:54.610Z,90.03
2022-10-23T23:44:22.989Z,89.98
2022-10-23T23:46:51.099Z,89.87
2022-10-23T23:49:18.952Z,89.91
2022-10-23T23:51:46.891Z,89.87
2022-10-23T23:54:17.999Z,90.00
2022-10-23T23:56:48.356Z,90.11
2022-10-23T23:59:16.859Z,90.03
